createdAt,value
2018-09-28T00:01:56.538Z,58.50
2018-09-28T00:04:24.420Z,59.30
2018-09-28T00:06:52.373Z,59.30
2018-09-28T00:09:20.011Z,59.60
2018-09-28T00:11:47.621Z,59.20
2018-09-28T00:14:15.240Z,59.40
2018-09-28T00:16:43.044Z,59.50
2018-09-28T00:19:10.690Z,59.60
2018-09-28T00:21:38.332Z,58.80
2018-09-28T00:24:06.188Z,58.40
2018-09-28T00:26:33.823Z,58.50
2018-09-28T00:29:01.517Z,59.20
2018-09-28T00:31:29.424Z,60.20
2018-09-28T00:33:57.004Z,59.70
2018-09-28T00:36:24.659Z,59.40
2018-09-28T00:38:52.321Z,59.40
2018-09-28T00:41:19.982Z,59.40
2018-09-28T00:43:47.578Z,59.20
2018-09-28T00:46:15.252Z,59.30
2018-09-28T00:48:43.120Z,59.50
2018-09-28T00:51:10.706Z,60.60
2018-09-28T00:53:38.489Z,60.30
2018-09-28T00:56:06.552Z,59.40
2018-09-28T00:58:34.323Z,59.90
2018-09-28T01:01:01.966Z,60.60
2018-09-28T01:03:29.579Z,60.70
2018-09-28T01:05:57.261Z,59.50
2018-09-28T01:08:24.905Z,59.20
2018-09-28T01:10:52.584Z,59.40
2018-09-28T01:13:20.194Z,60.30
2018-09-28T01:15:47.823Z,60.30
2018-09-28T01:18:15.433Z,59.50
2018-09-28T01:20:43.081Z,59.80
2018-09-28T01:23:10.681Z,60.60
2018-09-28T01:25:38.239Z,60.90
2018-09-28T01:28:05.912Z,62.20
2018-09-28T01:30:33.852Z,61.60
2018-09-28T01:33:01.466Z,61.00
2018-09-28T01:35:29.099Z,60.90
2018-09-28T01:37:56.791Z,61.40
2018-09-28T01:40:24.477Z,61.40
2018-09-28T01:42:52.127Z,61.00
2018-09-28T01:45:19.706Z,60.20
2018-09-28T01:47:47.408Z,59.70
2018-09-28T01:50:15.323Z,60.40
2018-09-28T01:52:43.049Z,60.20
2018-09-28T01:55:10.732Z,60.30
2018-09-28T01:57:38.404Z,60.80
2018-09-28T02:00:06.129Z,61.50
2018-09-28T02:02:33.729Z,61.80
2018-09-28T02:05:01.332Z,61.30
2018-09-28T02:07:28.996Z,60.90
2018-09-28T02:09:56.668Z,60.80
2018-09-28T02:12:24.348Z,60.50
2018-09-28T02:14:51.972Z,60.70
2018-09-28T02:17:19.611Z,60.70
2018-09-28T02:19:47.189Z,61.50
2018-09-28T02:22:14.821Z,62.80
2018-09-28T02:24:42.669Z,61.90
2018-09-28T02:27:10.276Z,60.90
2018-09-28T02:29:38.025Z,61.10
2018-09-28T02:32:06.344Z,61.90
2018-09-28T02:34:34.005Z,62.20
2018-09-28T02:37:01.602Z,61.40
2018-09-28T02:39:29.225Z,61.20
2018-09-28T02:41:56.900Z,61.90
2018-09-28T02:44:24.713Z,61.70
2018-09-28T02:46:52.349Z,61.90
2018-09-28T02:49:19.940Z,61.40
2018-09-28T02:51:47.601Z,61.60
2018-09-28T02:54:15.221Z,61.70
2018-09-28T02:56:42.937Z,60.60
2018-09-28T02:59:10.552Z,61.50
2018-09-28T03:01:38.504Z,61.10
2018-09-28T03:04:06.248Z,61.40
2018-09-28T03:06:33.868Z,61.60
2018-09-28T03:09:01.549Z,62.50
2018-09-28T03:11:29.288Z,62.50
2018-09-28T03:13:56.934Z,62.80
2018-09-28T03:16:24.716Z,63.20
2018-09-28T03:18:52.354Z,62.70
2018-09-28T03:21:19.945Z,62.50
2018-09-28T03:23:47.815Z,62.50
2018-09-28T03:26:15.449Z,63.40
2018-09-28T03:28:43.134Z,62.20
2018-09-28T03:31:10.721Z,62.20
2018-09-28T03:33:38.397Z,62.00
2018-09-28T03:36:05.932Z,62.50
2018-09-28T03:38:33.814Z,62.90
2018-09-28T03:41:01.345Z,63.40
2018-09-28T03:43:28.991Z,63.10
2018-09-28T03:45:56.598Z,62.90
2018-09-28T03:48:24.287Z,63.00
2018-09-28T03:50:51.913Z,62.60
2018-09-28T03:53:19.529Z,62.60
2018-09-28T03:55:47.364Z,62.40
2018-09-28T03:58:15.017Z,62.40
2018-09-28T04:00:42.561Z,62.60
2018-09-28T04:03:10.139Z,63.30
2018-09-28T04:05:37.756Z,63.00
2018-09-28T04:08:05.471Z,62.70
2018-09-28T04:10:33.169Z,62.90
2018-09-28T04:13:00.803Z,63.00
2018-09-28T04:15:28.324Z,62.90
2018-09-28T04:17:56.089Z,63.70
2018-09-28T04:20:23.629Z,63.70
2018-09-28T04:22:51.351Z,63.50
2018-09-28T04:25:18.916Z,63.40
2018-09-28T04:27:46.659Z,63.10
2018-09-28T04:30:14.236Z,62.90
2018-09-28T04:32:41.865Z,62.70
2018-09-28T04:35:09.457Z,63.10
2018-09-28T04:40:13.276Z,64.20
2018-09-28T04:42:40.834Z,63.90
2018-09-28T04:45:08.446Z,63.00
2018-09-28T04:47:36.056Z,63.50
2018-09-28T04:50:03.664Z,63.80
2018-09-28T04:52:31.288Z,63.70
2018-09-28T04:54:59.950Z,63.70
2018-09-28T04:57:27.556Z,63.80
2018-09-28T04:59:55.123Z,63.70
2018-09-28T05:02:22.698Z,63.40
2018-09-28T05:04:50.275Z,63.40
2018-09-28T05:07:18.315Z,63.70
2018-09-28T05:09:45.836Z,64.00
2018-09-28T05:17:05.852Z,65.00
2018-09-28T05:19:33.475Z,65.30
2018-09-28T05:22:01.093Z,64.70
2018-09-28T05:24:29.016Z,64.60
2018-09-28T05:26:56.996Z,64.70
2018-09-28T05:29:24.612Z,64.10
2018-09-28T05:31:52.432Z,64.00
2018-09-28T05:34:19.961Z,64.20
2018-09-28T05:36:47.665Z,64.30
2018-09-28T05:39:15.292Z,64.30
2018-09-28T05:41:42.908Z,64.50
2018-09-28T05:44:10.517Z,65.40
2018-09-28T05:46:38.063Z,65.90
2018-09-28T05:49:05.706Z,66.30
2018-09-28T05:51:33.375Z,66.20
2018-09-28T05:54:01.128Z,66.30
2018-09-28T05:56:28.744Z,66.20
2018-09-28T05:59:01.869Z,66.20
2018-09-28T06:01:35.137Z,66.70
2018-09-28T06:04:08.333Z,66.90
2018-09-28T06:06:36.038Z,67.40
2018-09-28T06:09:05.656Z,67.70
2018-09-28T06:11:33.329Z,67.50
2018-09-28T06:14:01.058Z,67.60
2018-09-28T06:16:28.664Z,68.20
2018-09-28T06:18:56.536Z,68.00
2018-09-28T06:21:24.288Z,68.80
2018-09-28T06:23:51.920Z,69.50
2018-09-28T06:26:19.815Z,69.80
2018-09-28T06:28:47.529Z,70.40
2018-09-28T06:31:15.189Z,70.40
2018-09-28T06:33:42.863Z,70.50
2018-09-28T06:36:10.500Z,70.90
2018-09-28T06:38:38.172Z,71.20
2018-09-28T06:41:05.982Z,71.70
2018-09-28T06:43:33.595Z,71.40
2018-09-28T06:46:01.171Z,71.30
2018-09-28T06:48:28.823Z,71.70
2018-09-28T06:50:56.457Z,72.20
2018-09-28T06:53:25.037Z,72.20
2018-09-28T06:55:52.705Z,72.40
2018-09-28T06:58:20.972Z,72.60
2018-09-28T07:00:48.485Z,73.10
2018-09-28T07:03:16.141Z,73.10
2018-09-28T07:05:43.834Z,74.30
2018-09-28T07:08:11.476Z,74.20
2018-09-28T07:10:39.094Z,74.20
2018-09-28T07:13:06.729Z,74.50
2018-09-28T07:15:34.356Z,74.80
2018-09-28T07:18:02.151Z,74.80
2018-09-28T07:20:29.976Z,75.20
2018-09-28T07:22:57.776Z,75.20
2018-09-28T07:25:25.353Z,74.90
2018-09-28T07:27:52.892Z,75.10
2018-09-28T07:30:20.626Z,75.70
2018-09-28T07:32:48.179Z,76.20
2018-09-28T07:35:15.801Z,76.90
2018-09-28T07:37:43.472Z,77.30
2018-09-28T07:40:11.126Z,77.00
2018-09-28T07:42:38.825Z,76.70
2018-09-28T07:45:06.572Z,75.00
2018-09-28T07:47:34.168Z,74.50
2018-09-28T07:50:01.829Z,74.50
2018-09-28T07:52:29.559Z,73.90
2018-09-28T07:54:57.235Z,73.60
2018-09-28T07:57:24.881Z,73.40
2018-09-28T07:59:52.573Z,72.70
2018-09-28T08:02:20.180Z,72.60
2018-09-28T08:04:47.808Z,71.90
2018-09-28T08:07:15.446Z,72.10
2018-09-28T08:09:43.085Z,70.40
2018-09-28T08:12:10.712Z,70.40
2018-09-28T08:14:38.584Z,70.80
2018-09-28T08:17:06.178Z,71.00
2018-09-28T08:22:07.193Z,70.70
2018-09-28T08:24:34.824Z,70.20
2018-09-28T08:27:02.593Z,70.30
2018-09-28T08:29:30.440Z,67.20
2018-09-28T08:31:58.040Z,66.60
2018-09-28T08:34:26.036Z,66.00
2018-09-28T08:36:53.808Z,64.50
2018-09-28T08:39:21.263Z,63.60
2018-09-28T08:41:48.908Z,63.00
2018-09-28T08:44:16.718Z,62.30
2018-09-28T08:46:50.983Z,62.50
2018-09-28T08:49:18.717Z,61.90
2018-09-28T08:51:53.046Z,60.90
2018-09-28T08:54:20.688Z,60.50
2018-09-28T08:56:48.382Z,60.30
2018-09-28T08:59:16.028Z,59.70
2018-09-28T09:01:43.667Z,59.60
2018-09-28T09:04:11.527Z,59.30
2018-09-28T09:06:39.146Z,58.20
2018-09-28T09:09:09.031Z,58.00
2018-09-28T09:11:36.806Z,58.10
2018-09-28T09:14:04.441Z,56.90
2018-09-28T09:16:32.044Z,56.60
2018-09-28T09:18:59.735Z,56.00
2018-09-28T09:21:27.392Z,54.10
2018-09-28T09:23:55.056Z,53.90
2018-09-28T09:26:22.761Z,54.20
2018-09-28T09:28:50.366Z,53.80
2018-09-28T09:31:17.975Z,53.70
2018-09-28T09:33:45.580Z,53.10
2018-09-28T09:36:13.135Z,52.80
2018-09-28T09:38:40.840Z,51.20
2018-09-28T09:41:08.694Z,50.00
2018-09-28T09:43:36.333Z,49.30
2018-09-28T09:46:03.970Z,48.90
2018-09-28T09:48:32.152Z,48.90
2018-09-28T09:50:59.725Z,47.60
2018-09-28T09:53:27.556Z,47.70
2018-09-28T09:55:55.181Z,47.70
2018-09-28T09:58:22.924Z,46.80
2018-09-28T10:00:56.165Z,45.40
2018-09-28T10:05:57.112Z,45.70
2018-09-28T10:08:24.984Z,44.50
2018-09-28T10:10:52.675Z,44.60
2018-09-28T10:13:20.536Z,44.20
2018-09-28T10:15:48.176Z,44.20
2018-09-28T10:18:15.771Z,43.30
2018-09-28T10:20:43.379Z,42.60
2018-09-28T10:23:11.028Z,42.10
2018-09-28T10:25:38.967Z,42.60
2018-09-28T10:28:06.536Z,41.80
2018-09-28T10:30:34.216Z,41.60
2018-09-28T10:33:01.813Z,41.80
2018-09-28T10:35:29.486Z,40.50
2018-09-28T10:37:57.260Z,40.90
2018-09-28T10:40:25.064Z,40.00
2018-09-28T10:42:52.544Z,41.10
2018-09-28T10:45:20.253Z,41.00
2018-09-28T10:47:47.863Z,40.50
2018-09-28T10:50:15.430Z,39.80
2018-09-28T10:52:43.242Z,39.20
2018-09-28T10:55:10.837Z,39.10
2018-09-28T10:57:38.490Z,38.90
2018-09-28T11:00:06.268Z,38.80
2018-09-28T11:02:33.856Z,38.90
2018-09-28T11:05:01.497Z,39.20
2018-09-28T11:07:29.097Z,39.00
2018-09-28T11:09:56.716Z,39.20
2018-09-28T11:12:24.938Z,38.80
2018-09-28T11:14:52.591Z,39.20
2018-09-28T11:17:20.197Z,38.80
2018-09-28T11:19:47.840Z,38.90
2018-09-28T11:22:15.499Z,38.90
2018-09-28T11:24:43.136Z,38.00
2018-09-28T11:27:10.757Z,36.50
2018-09-28T11:29:38.849Z,36.00
2018-09-28T11:32:07.071Z,35.60
2018-09-28T11:34:34.691Z,35.70
2018-09-28T11:37:02.308Z,36.30
2018-09-28T11:39:29.933Z,35.90
2018-09-28T11:41:57.580Z,35.50
2018-09-28T11:44:25.223Z,34.60
2018-09-28T11:46:52.878Z,35.70
2018-09-28T11:49:20.480Z,35.50
2018-09-28T11:51:48.143Z,35.70
2018-09-28T11:54:15.739Z,33.60
2018-09-28T11:56:43.392Z,33.60
2018-09-28T11:59:11.010Z,34.50
2018-09-28T12:01:38.675Z,35.00
2018-09-28T12:04:06.595Z,34.70
2018-09-28T12:06:34.273Z,34.00
2018-09-28T12:09:01.842Z,34.30
2018-09-28T12:11:29.486Z,33.70
2018-09-28T12:13:57.164Z,33.00
2018-09-28T12:16:24.806Z,34.00
2018-09-28T12:18:52.513Z,34.40
2018-09-28T12:21:20.214Z,33.30
2018-09-28T12:23:47.778Z,34.10
2018-09-28T12:26:15.392Z,34.00
2018-09-28T12:28:43.028Z,33.50
2018-09-28T12:31:10.678Z,33.90
2018-09-28T12:33:38.349Z,33.50
2018-09-28T12:36:06.112Z,34.20
2018-09-28T12:38:33.768Z,34.40
2018-09-28T12:41:01.372Z,35.30
2018-09-28T12:43:35.029Z,35.80
2018-09-28T12:45:56.641Z,36.00
2018-09-28T12:48:24.297Z,35.80
2018-09-28T12:50:51.888Z,36.10
2018-09-28T12:53:19.488Z,35.60
2018-09-28T12:55:47.123Z,36.00
2018-09-28T12:58:14.741Z,36.00
2018-09-28T13:00:42.406Z,36.10
2018-09-28T13:03:10.012Z,35.90
2018-09-28T13:05:37.693Z,35.80
2018-09-28T13:08:05.496Z,35.30
2018-09-28T13:10:33.119Z,35.40
2018-09-28T13:13:00.783Z,35.30
2018-09-28T13:15:28.644Z,34.90
2018-09-28T13:17:56.481Z,35.10
2018-09-28T13:20:24.429Z,35.00
2018-09-28T13:22:52.065Z,34.10
2018-09-28T13:25:19.735Z,34.00
2018-09-28T13:27:47.352Z,34.20
2018-09-28T13:30:15.142Z,33.50
2018-09-28T13:32:42.785Z,32.70
2018-09-28T13:35:10.416Z,33.30
2018-09-28T13:37:38.077Z,33.40
2018-09-28T13:40:05.753Z,33.20
2018-09-28T13:42:33.414Z,33.20
2018-09-28T13:45:01.214Z,33.60
2018-09-28T13:47:28.836Z,33.70
2018-09-28T13:49:56.437Z,33.40
2018-09-28T13:52:24.060Z,33.70
2018-09-28T13:54:51.727Z,34.40
2018-09-28T13:57:19.433Z,34.20
2018-09-28T13:59:47.099Z,33.40
2018-09-28T14:02:14.797Z,33.60
2018-09-28T14:04:42.436Z,33.20
2018-09-28T14:07:10.193Z,33.00
2018-09-28T14:09:37.993Z,32.50
2018-09-28T14:12:05.914Z,32.60
2018-09-28T14:14:33.955Z,33.00
2018-09-28T14:17:01.544Z,33.10
2018-09-28T14:19:29.213Z,32.80
2018-09-28T14:21:56.792Z,33.40
2018-09-28T14:24:25.111Z,33.30
2018-09-28T14:26:52.771Z,33.20
2018-09-28T14:29:20.376Z,32.40
2018-09-28T14:31:48.007Z,33.00
2018-09-28T14:34:16.027Z,33.80
2018-09-28T14:36:43.730Z,33.10
2018-09-28T14:39:11.337Z,33.10
2018-09-28T14:41:39.043Z,32.60
2018-09-28T14:44:07.447Z,32.80
2018-09-28T14:46:35.030Z,32.70
2018-09-28T14:49:02.922Z,32.90
2018-09-28T14:51:30.828Z,33.40
2018-09-28T14:53:58.527Z,33.80
2018-09-28T14:56:26.336Z,34.30
2018-09-28T14:58:54.048Z,34.80
2018-09-28T15:01:21.788Z,35.20
2018-09-28T15:03:49.667Z,35.60
2018-09-28T15:06:17.607Z,36.00
2018-09-28T15:08:45.286Z,36.10
2018-09-28T15:11:12.892Z,36.40
2018-09-28T15:13:40.582Z,36.80
2018-09-28T15:16:08.271Z,36.80
2018-09-28T15:18:35.856Z,36.90
2018-09-28T15:21:03.521Z,37.00
2018-09-28T15:23:31.153Z,37.10
2018-09-28T15:25:58.801Z,37.20
2018-09-28T15:28:26.719Z,36.80
2018-09-28T15:30:54.441Z,36.60
2018-09-28T15:33:22.116Z,36.90
2018-09-28T15:35:49.747Z,36.90
2018-09-28T15:38:17.356Z,36.80
2018-09-28T15:40:45.005Z,36.70
2018-09-28T15:43:12.702Z,36.60
2018-09-28T15:45:40.370Z,36.80
2018-09-28T15:48:08.182Z,37.10
2018-09-28T15:50:35.868Z,37.40
2018-09-28T15:53:03.563Z,37.50
2018-09-28T15:55:31.143Z,37.50
2018-09-28T15:57:58.808Z,37.70
2018-09-28T16:00:26.562Z,37.60
2018-09-28T16:02:54.384Z,37.80
2018-09-28T16:05:22.016Z,37.90
2018-09-28T16:07:49.672Z,38.00
2018-09-28T16:10:17.752Z,38.10
2018-09-28T16:12:45.447Z,38.30
2018-09-28T16:15:13.048Z,38.50
2018-09-28T16:17:40.680Z,38.80
2018-09-28T16:20:08.402Z,38.80
2018-09-28T16:22:36.031Z,38.80
2018-09-28T16:25:03.824Z,39.00
2018-09-28T16:27:38.181Z,39.20
2018-09-28T16:30:05.866Z,39.80
2018-09-28T16:32:33.565Z,39.10
2018-09-28T16:35:01.430Z,39.20
2018-09-28T16:37:29.114Z,39.40
2018-09-28T16:39:56.740Z,40.00
2018-09-28T16:42:24.501Z,40.30
2018-09-28T16:44:52.110Z,40.80
2018-09-28T16:47:19.745Z,41.10
2018-09-28T16:49:47.476Z,41.20
2018-09-28T16:52:15.147Z,41.30
2018-09-28T16:54:42.787Z,41.30
2018-09-28T16:57:10.501Z,41.60
2018-09-28T16:59:38.168Z,41.70
2018-09-28T17:02:05.917Z,42.50
2018-09-28T17:04:33.635Z,42.00
2018-09-28T17:07:01.536Z,42.10
2018-09-28T17:09:29.184Z,42.30
2018-09-28T17:11:57.817Z,42.40
2018-09-28T17:14:25.488Z,42.90
2018-09-28T17:16:53.353Z,43.20
2018-09-28T17:19:21.107Z,43.40
2018-09-28T17:21:48.744Z,43.70
2018-09-28T17:24:16.426Z,44.00
2018-09-28T17:26:44.041Z,44.30
2018-09-28T17:29:11.697Z,44.50
2018-09-28T17:31:39.349Z,44.70
2018-09-28T17:34:07.029Z,44.40
2018-09-28T17:36:34.712Z,44.40
2018-09-28T17:39:02.430Z,44.40
2018-09-28T17:41:30.086Z,44.20
2018-09-28T17:43:57.736Z,44.20
2018-09-28T17:46:25.402Z,44.10
2018-09-28T17:48:53.049Z,43.60
2018-09-28T17:51:20.665Z,43.30
2018-09-28T17:53:48.434Z,42.80
2018-09-28T17:56:16.026Z,42.50
2018-09-28T17:58:43.713Z,42.30
2018-09-28T18:01:11.397Z,42.10
2018-09-28T18:03:39.067Z,42.20
2018-09-28T18:06:06.728Z,42.30
2018-09-28T18:08:34.488Z,42.50
2018-09-28T18:11:02.801Z,43.40
2018-09-28T18:13:30.450Z,43.00
2018-09-28T18:15:58.118Z,43.20
2018-09-28T18:18:25.889Z,43.50
2018-09-28T18:20:53.569Z,43.80
2018-09-28T18:23:21.445Z,44.40
2018-09-28T18:25:49.079Z,45.50
2018-09-28T18:28:16.690Z,45.20
2018-09-28T18:30:44.486Z,45.60
2018-09-28T18:33:12.126Z,45.90
2018-09-28T18:35:39.929Z,46.50
2018-09-28T18:38:08.157Z,46.90
2018-09-28T18:40:36.608Z,47.60
2018-09-28T18:43:04.227Z,47.80
2018-09-28T18:45:31.937Z,47.90
2018-09-28T18:47:59.697Z,48.50
2018-09-28T18:50:27.433Z,48.90
2018-09-28T18:52:55.108Z,49.20
2018-09-28T18:55:24.782Z,49.60
2018-09-28T18:57:52.447Z,50.20
2018-09-28T19:00:20.132Z,50.60
2018-09-28T19:02:47.868Z,50.80
2018-09-28T19:05:15.537Z,51.00
2018-09-28T19:07:43.161Z,51.50
2018-09-28T19:10:10.865Z,51.70
2018-09-28T19:12:38.561Z,52.60
2018-09-28T19:15:06.514Z,52.30
2018-09-28T19:17:34.141Z,52.70
2018-09-28T19:20:01.889Z,53.10
2018-09-28T19:22:29.524Z,53.30
2018-09-28T19:24:57.227Z,53.40
2018-09-28T19:27:25.020Z,53.90
2018-09-28T19:29:53.641Z,54.10
2018-09-28T19:32:21.288Z,54.30
2018-09-28T19:34:48.922Z,54.60
2018-09-28T19:37:16.605Z,54.90
2018-09-28T19:39:44.247Z,55.10
2018-09-28T19:42:11.872Z,55.30
2018-09-28T19:44:39.493Z,55.50
2018-09-28T19:47:07.149Z,55.60
2018-09-28T19:49:34.791Z,55.60
2018-09-28T19:52:02.640Z,55.40
2018-09-28T19:54:30.280Z,55.30
2018-09-28T19:56:58.032Z,55.70
2018-09-28T19:59:25.693Z,56.00
2018-09-28T20:01:53.384Z,56.50
2018-09-28T20:04:21.062Z,56.90
2018-09-28T20:06:49.469Z,57.10
2018-09-28T20:09:17.139Z,56.90
2018-09-28T20:11:44.810Z,57.00
2018-09-28T20:14:12.464Z,57.00
2018-09-28T20:16:40.148Z,56.90
2018-09-28T20:19:07.785Z,56.50
2018-09-28T20:21:35.488Z,55.60
2018-09-28T20:24:03.226Z,55.70
2018-09-28T20:26:30.890Z,55.30
2018-09-28T20:28:58.531Z,55.30
2018-09-28T20:31:26.234Z,55.30
2018-09-28T20:33:53.934Z,55.30
2018-09-28T20:36:21.556Z,55.40
2018-09-28T20:38:49.200Z,55.50
2018-09-28T20:41:16.884Z,55.50
2018-09-28T20:43:44.563Z,55.60
2018-09-28T20:46:12.301Z,55.70
2018-09-28T20:48:39.942Z,55.60
2018-09-28T20:51:07.614Z,56.40
2018-09-28T20:53:35.292Z,55.80
2018-09-28T20:56:02.951Z,56.10
2018-09-28T20:58:30.568Z,56.40
2018-09-28T21:00:58.254Z,56.50
2018-09-28T21:03:25.893Z,56.80
2018-09-28T21:05:53.921Z,56.90
2018-09-28T21:08:21.595Z,57.10
2018-09-28T21:10:49.452Z,57.30
2018-09-28T21:13:17.097Z,57.70
2018-09-28T21:15:44.738Z,58.10
2018-09-28T21:18:12.366Z,58.40
2018-09-28T21:20:40.228Z,59.00
2018-09-28T21:23:08.174Z,60.30
2018-09-28T21:25:35.810Z,61.50
2018-09-28T21:28:03.450Z,62.20
2018-09-28T21:30:31.076Z,62.80
2018-09-28T21:32:58.704Z,63.20
2018-09-28T21:35:26.410Z,63.50
2018-09-28T21:37:54.228Z,64.30
2018-09-28T21:40:21.834Z,63.60
2018-09-28T21:42:49.508Z,64.10
2018-09-28T21:45:17.376Z,64.10
2018-09-28T21:47:45.004Z,64.00
2018-09-28T21:50:12.614Z,63.40
2018-09-28T21:52:40.236Z,64.10
2018-09-28T21:55:07.800Z,63.60
2018-09-28T21:57:35.422Z,63.40
2018-09-28T22:00:03.137Z,63.90
2018-09-28T22:02:30.757Z,64.10
2018-09-28T22:04:58.436Z,64.30
2018-09-28T22:07:26.082Z,63.30
2018-09-28T22:09:53.691Z,63.10
2018-09-28T22:12:21.425Z,63.70
2018-09-28T22:14:49.073Z,63.40
2018-09-28T22:17:16.957Z,63.70
2018-09-28T22:19:44.618Z,63.60
2018-09-28T22:22:12.473Z,63.60
2018-09-28T22:24:40.237Z,63.60
2018-09-28T22:27:07.877Z,63.50
2018-09-28T22:29:35.700Z,63.10
2018-09-28T22:32:03.304Z,62.40
2018-09-28T22:34:30.929Z,63.10
2018-09-28T22:36:58.536Z,63.30
2018-09-28T22:39:26.170Z,63.00
2018-09-28T22:41:53.839Z,62.70
2018-09-28T22:44:21.449Z,62.30
2018-09-28T22:46:49.089Z,62.20
2018-09-28T22:49:16.727Z,62.30
2018-09-28T22:51:44.360Z,62.30
2018-09-28T22:54:11.904Z,61.80
2018-09-28T22:56:39.516Z,61.40
2018-09-28T22:59:07.628Z,61.40
2018-09-28T23:01:37.175Z,62.00
2018-09-28T23:04:04.824Z,61.00
2018-09-28T23:06:32.488Z,61.20
2018-09-28T23:09:00.151Z,61.00
2018-09-28T23:11:27.771Z,59.90
2018-09-28T23:13:55.388Z,60.00
2018-09-28T23:16:23.056Z,58.70
2018-09-28T23:18:50.685Z,59.30
2018-09-28T23:21:18.388Z,58.40
2018-09-28T23:23:45.988Z,57.90
2018-09-28T23:26:13.604Z,57.70
2018-09-28T23:28:41.508Z,57.50
2018-09-28T23:31:09.152Z,57.50
2018-09-28T23:33:36.929Z,57.10
2018-09-28T23:36:04.604Z,56.50
2018-09-28T23:38:32.292Z,56.70
2018-09-28T23:40:59.901Z,56.40
2018-09-28T23:43:27.556Z,56.50
2018-09-28T23:45:55.182Z,56.50
2018-09-28T23:48:22.859Z,56.70
2018-09-28T23:50:50.494Z,56.10
2018-09-28T23:53:18.204Z,55.60
2018-09-28T23:55:46.061Z,55.50
2018-09-28T23:58:13.664Z,55.10
